Time;durP1;ratioP1;P1;durP2;ratioP2;P2;SDS_P1;SDS_P2;PMS_P1;PMS_P2;Temp;Humidity;BMP_temperature;BMP_pressure;BME280_temperature;BME280_humidity;BME280_pressure;Samples;Min_cycle;Max_cycle;Signal;HPM_P1;HPM_P2
2022/04/30 00:00:12;;;;;;;;;;;12.00;94.30;;;;;;4331916;33;43187;-82
2022/04/30 00:02:45;;;;;;;;;;;12.00;94.30;;;;;;4331372;33;42735;-83
2022/04/30 00:05:17;;;;;;;;;;;12.00;94.50;;;;;;4330512;33;44067;-82
2022/04/30 00:07:47;;;;;;;;;;;12.00;94.40;;;;;;4318522;33;43575;-83
2022/04/30 00:10:17;;;;;;;;;;;11.90;94.40;;;;;;4332167;33;46197;-82
2022/04/30 00:12:47;;;;;;;;;;;11.90;94.40;;;;;;4318156;33;43299;-82
2022/04/30 00:15:19;;;;;;;;;;;11.90;94.30;;;;;;4331792;33;42637;-83
2022/04/30 00:17:51;;;;;;;;;;;11.90;94.30;;;;;;4318563;33;42889;-83
2022/04/30 00:20:18;;;;;;;;;;;11.90;94.20;;;;;;4331832;33;46035;-82
2022/04/30 00:22:48;;;;;;;;;;;11.80;94.10;;;;;;4319337;33;20482;-83
2022/04/30 00:25:25;;;;;;;;;;;11.80;94.30;;;;;;4331603;33;42653;-83
2022/04/30 00:27:55;;;;;;;;;;;11.80;94.20;;;;;;4318626;33;45287;-83
2022/04/30 00:30:25;;;;;;;;;;;11.80;94.10;;;;;;4331553;33;44832;-83
2022/04/30 00:32:57;;;;;;;;;;;11.80;94.20;;;;;;4331708;33;43414;-82
2022/04/30 00:35:24;;;;;;;;;;;11.80;94.10;;;;;;4331332;33;42638;-82
2022/04/30 00:37:54;;;;;;;;;;;11.80;94.10;;;;;;4331340;33;42606;-82
2022/04/30 00:40:25;;;;;;;;;;;11.80;94.20;;;;;;4318359;33;44195;-82
2022/04/30 00:42:54;;;;;;;;;;;11.80;94.10;;;;;;4317970;33;43889;-82
2022/04/30 00:45:21;;;;;;;;;;;11.80;94.20;;;;;;4330964;33;42593;-81
2022/04/30 00:48:00;;;;;;;;;;;11.70;94.00;;;;;;4330390;33;44374;-82
2022/04/30 00:50:36;;;;;;;;;;;11.70;94.10;;;;;;4331357;33;44095;-82
2022/04/30 00:53:06;;;;;;;;;;;11.70;94.00;;;;;;4331003;33;20414;-82
2022/04/30 00:55:33;;;;;;;;;;;11.70;94.00;;;;;;4331512;33;43283;-83
2022/04/30 00:58:05;;;;;;;;;;;11.60;94.10;;;;;;4330068;33;43339;-82
2022/04/30 01:00:33;;;;;;;;;;;11.60;94.10;;;;;;4331114;33;44199;-82
2022/04/30 01:03:02;;;;;;;;;;;11.60;94.20;;;;;;4317034;33;43321;-82
2022/04/30 01:05:38;;;;;;;;;;;11.60;94.10;;;;;;4318266;33;43613;-82
2022/04/30 01:08:13;;;;;;;;;;;11.60;94.00;;;;;;4330852;33;43208;-82
2022/04/30 01:10:42;;;;;;;;;;;11.60;94.10;;;;;;4330928;33;42543;-82
2022/04/30 01:13:13;;;;;;;;;;;11.60;94.20;;;;;;4331103;33;44223;-82
2022/04/30 01:15:44;;;;;;;;;;;11.60;94.00;;;;;;4318135;33;44042;-82
2022/04/30 01:18:12;;;;;;;;;;;11.50;94.10;;;;;;4318006;33;44127;-83
2022/04/30 01:20:42;;;;;;;;;;;11.50;94.20;;;;;;4330764;33;42728;-82
2022/04/30 01:23:16;;;;;;;;;;;11.50;94.10;;;;;;4317570;33;43812;-82
2022/04/30 01:25:47;;;;;;;;;;;11.50;94.20;;;;;;4330911;33;44169;-82
2022/04/30 01:28:21;;;;;;;;;;;11.50;94.00;;;;;;4317783;33;42735;-83
2022/04/30 01:30:49;;;;;;;;;;;11.50;94.00;;;;;;4317405;33;42776;-83
2022/04/30 01:38:59;;;;;;;;;;;11.50;94.10;;;;;;4330830;33;44203;-83
2022/04/30 01:41:32;;;;;;;;;;;11.50;94.20;;;;;;4317575;33;43184;-82
2022/04/30 01:44:04;;;;;;;;;;;11.50;94.20;;;;;;4329732;33;44272;-83
2022/04/30 01:46:31;;;;;;;;;;;11.40;94.00;;;;;;4330408;33;44248;-83
2022/04/30 01:49:04;;;;;;;;;;;11.40;94.20;;;;;;4329237;33;44142;-83
2022/04/30 01:51:38;;;;;;;;;;;11.40;94.20;;;;;;4330100;33;43861;-83
2022/04/30 01:54:08;;;;;;;;;;;11.40;94.00;;;;;;4331424;33;20006;-83
2022/04/30 01:56:41;;;;;;;;;;;11.40;94.20;;;;;;4317281;33;44253;-83
2022/04/30 01:59:14;;;;;;;;;;;11.40;94.20;;;;;;4329264;33;43462;-82
2022/04/30 02:01:53;;;;;;;;;;;11.40;94.20;;;;;;4317046;33;44083;-82
2022/04/30 02:04:23;;;;;;;;;;;11.40;94.20;;;;;;4317483;33;43358;-82
2022/04/30 02:06:54;;;;;;;;;;;11.30;94.10;;;;;;4330659;33;45805;-82
2022/04/30 02:09:27;;;;;;;;;;;11.30;94.20;;;;;;4317411;33;44097;-82
2022/04/30 02:11:59;;;;;;;;;;;11.40;94.30;;;;;;4330531;33;43060;-83
2022/04/30 02:14:33;;;;;;;;;;;11.30;94.20;;;;;;4318931;33;43847;-82
2022/04/30 02:17:05;;;;;;;;;;;11.30;94.20;;;;;;4320496;33;43895;-82
2022/04/30 02:20:18;;;;;;;;;;;11.30;94.20;;;;;;4333124;33;44524;-82
2022/04/30 02:22:25;;;;;;;;;;;11.30;94.20;;;;;;4333446;33;44276;-82
2022/04/30 02:25:07;;;;;;;;;;;11.20;94.20;;;;;;4320513;33;20013;-82
2022/04/30 02:27:42;;;;;;;;;;;11.20;94.30;;;;;;4320194;33;44638;-82
2022/04/30 02:30:12;;;;;;;;;;;11.20;94.30;;;;;;4320395;33;43352;-81
2022/04/30 02:32:39;;;;;;;;;;;11.20;94.40;;;;;;4333349;33;42745;-82
2022/04/30 02:35:09;;;;;;;;;;;11.20;94.30;;;;;;4333285;33;45338;-82
2022/04/30 02:37:39;;;;;;;;;;;11.10;94.50;;;;;;4332841;33;42829;-83
2022/04/30 02:40:06;;;;;;;;;;;11.20;94.60;;;;;;4332951;33;44935;-83
2022/04/30 02:42:38;;;;;;;;;;;11.10;94.60;;;;;;4319808;33;43213;-82
2022/04/30 02:45:11;;;;;;;;;;;11.10;94.70;;;;;;4320090;33;43486;-81
2022/04/30 02:47:41;;;;;;;;;;;11.10;94.70;;;;;;4333142;33;44406;-82
2022/04/30 02:50:13;;;;;;;;;;;11.10;94.70;;;;;;4319801;33;43351;-82
2022/04/30 02:52:44;;;;;;;;;;;11.10;94.70;;;;;;4319779;33;42530;-82
2022/04/30 02:55:14;;;;;;;;;;;11.10;94.70;;;;;;4333290;33;20415;-82
2022/04/30 03:00:48;;;;;;;;;;;11.10;94.70;;;;;;4332509;33;44001;-82
2022/04/30 03:03:21;;;;;;;;;;;11.10;95.10;;;;;;4332556;33;43244;-82
2022/04/30 03:05:50;;;;;;;;;;;11.00;94.70;;;;;;4332527;33;44130;-82
2022/04/30 03:08:21;;;;;;;;;;;11.00;94.80;;;;;;4332866;33;43290;-81
2022/04/30 03:10:56;;;;;;;;;;;11.00;94.80;;;;;;4319193;33;42213;-82
2022/04/30 03:13:25;;;;;;;;;;;11.00;94.80;;;;;;4332273;33;42922;-82
2022/04/30 03:21:46;;;;;;;;;;;10.90;94.70;;;;;;4332266;33;43454;-82
2022/04/30 03:24:19;;;;;;;;;;;10.90;94.80;;;;;;4319301;33;42575;-82
2022/04/30 03:26:50;;;;;;;;;;;10.90;94.90;;;;;;4318074;33;43486;-81
2022/04/30 03:29:23;;;;;;;;;;;10.90;94.80;;;;;;4331474;33;44293;-82
2022/04/30 03:31:55;;;;;;;;;;;10.90;94.90;;;;;;4332432;33;43490;-82
2022/04/30 03:34:32;;;;;;;;;;;10.90;94.90;;;;;;4332505;33;43578;-82
2022/04/30 03:37:02;;;;;;;;;;;10.80;95.30;;;;;;4332447;33;44697;-81
2022/04/30 03:39:29;;;;;;;;;;;10.90;95.00;;;;;;4331908;33;45555;-83
2022/04/30 03:41:59;;;;;;;;;;;10.90;95.00;;;;;;4319144;33;44812;-81
2022/04/30 03:44:26;;;;;;;;;;;10.90;95.10;;;;;;4330747;33;42166;-81
2022/04/30 03:46:56;;;;;;;;;;;10.90;94.90;;;;;;4332211;33;44586;-82
2022/04/30 03:49:29;;;;;;;;;;;10.80;94.90;;;;;;4331314;33;44353;-81
2022/04/30 03:51:59;;;;;;;;;;;10.80;95.00;;;;;;4319094;33;44275;-81
2022/04/30 03:54:34;;;;;;;;;;;10.80;95.00;;;;;;4332259;33;43581;-82
2022/04/30 03:57:06;;;;;;;;;;;10.80;95.10;;;;;;4331932;33;43274;-81
2022/04/30 03:59:36;;;;;;;;;;;10.80;95.40;;;;;;4332369;33;44092;-82
2022/04/30 04:02:03;;;;;;;;;;;10.80;95.00;;;;;;4318288;33;44218;-82
2022/04/30 04:04:31;;;;;;;;;;;10.80;95.00;;;;;;4330965;33;43554;-80
2022/04/30 04:07:04;;;;;;;;;;;10.80;95.00;;;;;;4318388;33;43284;-81
2022/04/30 04:09:35;;;;;;;;;;;10.70;95.00;;;;;;4331038;33;42847;-81
2022/04/30 04:12:08;;;;;;;;;;;10.70;94.90;;;;;;4331873;33;43276;-81
2022/04/30 04:17:39;;;;;;;;;;;10.70;94.90;;;;;;4332082;33;43293;-81
2022/04/30 04:20:12;;;;;;;;;;;10.70;94.90;;;;;;4332044;33;43444;-81
2022/04/30 04:22:39;;;;;;;;;;;10.70;94.80;;;;;;4331757;33;45986;-81
2022/04/30 04:27:58;;;;;;;;;;;10.60;94.70;;;;;;4331859;33;43600;-81
2022/04/30 04:30:30;;;;;;;;;;;10.60;94.60;;;;;;4318246;33;43474;-81
2022/04/30 04:33:00;;;;;;;;;;;10.60;94.90;;;;;;4330117;33;42260;-80
2022/04/30 04:35:27;;;;;;;;;;;10.60;94.80;;;;;;4331661;33;43449;-80
2022/04/30 04:37:57;;;;;;;;;;;10.50;94.80;;;;;;4330856;33;44085;-80
2022/04/30 04:40:24;;;;;;;;;;;10.50;94.90;;;;;;4331469;33;43952;-81
2022/04/30 04:42:51;;;;;;;;;;;10.50;94.90;;;;;;4330991;33;44231;-81
2022/04/30 04:45:23;;;;;;;;;;;10.60;94.90;;;;;;4318561;33;44196;-82
2022/04/30 04:47:51;;;;;;;;;;;10.50;94.90;;;;;;4331739;33;44203;-81
2022/04/30 04:50:22;;;;;;;;;;;10.50;94.90;;;;;;4317853;33;43298;-81
2022/04/30 04:52:53;;;;;;;;;;;10.50;95.00;;;;;;4331363;33;44102;-81
2022/04/30 04:55:26;;;;;;;;;;;10.50;94.90;;;;;;4330210;33;42492;-81
2022/04/30 04:57:56;;;;;;;;;;;10.50;95.00;;;;;;4331908;33;20068;-80
2022/04/30 05:00:27;;;;;;;;;;;10.50;95.00;;;;;;4330906;33;45817;-81
2022/04/30 05:03:00;;;;;;;;;;;10.50;94.90;;;;;;4331062;33;43448;-81
2022/04/30 05:05:27;;;;;;;;;;;10.50;95.10;;;;;;4317917;33;43871;-81
2022/04/30 05:07:59;;;;;;;;;;;10.50;94.90;;;;;;4318264;33;43933;-81
2022/04/30 05:10:26;;;;;;;;;;;10.50;95.00;;;;;;4329879;33;43474;-81
2022/04/30 05:12:57;;;;;;;;;;;10.50;95.10;;;;;;4317997;33;44584;-80
2022/04/30 05:15:34;;;;;;;;;;;10.50;95.10;;;;;;4331093;33;43180;-80
2022/04/30 05:18:02;;;;;;;;;;;10.50;95.20;;;;;;4330845;33;44099;-80
2022/04/30 05:20:31;;;;;;;;;;;10.40;95.10;;;;;;4330505;33;43975;-80
2022/04/30 05:23:17;;;;;;;;;;;10.40;95.30;;;;;;4331114;33;43270;-81
2022/04/30 05:25:44;;;;;;;;;;;10.50;95.40;;;;;;4317993;33;43326;-80
2022/04/30 05:28:17;;;;;;;;;;;10.40;95.50;;;;;;4318642;33;20006;-80
2022/04/30 05:30:49;;;;;;;;;;;10.40;95.50;;;;;;4317738;33;43092;-80
2022/04/30 05:33:22;;;;;;;;;;;10.40;95.50;;;;;;4329605;33;42895;-80
2022/04/30 05:35:57;;;;;;;;;;;10.40;95.60;;;;;;4330578;33;44154;-80
2022/04/30 05:38:33;;;;;;;;;;;10.40;95.60;;;;;;4317546;33;43050;-81
2022/04/30 05:41:01;;;;;;;;;;;10.40;95.70;;;;;;4330422;33;43298;-81
2022/04/30 05:43:30;;;;;;;;;;;10.40;95.80;;;;;;4330810;33;42368;-81
2022/04/30 05:45:58;;;;;;;;;;;10.40;95.80;;;;;;4330242;33;44227;-81
2022/04/30 05:48:31;;;;;;;;;;;10.40;96.00;;;;;;4316707;33;43482;-81
2022/04/30 05:51:04;;;;;;;;;;;10.30;95.90;;;;;;4330841;33;45973;-80
2022/04/30 05:53:39;;;;;;;;;;;10.30;96.10;;;;;;4329468;33;43472;-81
2022/04/30 05:56:12;;;;;;;;;;;10.30;96.10;;;;;;4316984;33;43339;-81
2022/04/30 05:58:42;;;;;;;;;;;10.30;96.20;;;;;;4331365;33;19993;-82
2022/04/30 06:01:12;;;;;;;;;;;10.40;96.30;;;;;;4330380;33;44922;-81
2022/04/30 06:03:48;;;;;;;;;;;10.30;96.20;;;;;;4316885;33;43870;-81
2022/04/30 06:06:19;;;;;;;;;;;10.30;96.30;;;;;;4330141;33;44097;-81
2022/04/30 06:08:54;;;;;;;;;;;10.40;96.30;;;;;;4318103;33;43173;-81
2022/04/30 06:11:27;;;;;;;;;;;10.40;96.20;;;;;;4317363;33;44613;-82
2022/04/30 06:14:02;;;;;;;;;;;10.40;96.10;;;;;;4317159;33;42642;-81
2022/04/30 06:16:29;;;;;;;;;;;10.40;96.40;;;;;;4330477;33;44659;-81
2022/04/30 06:19:05;;;;;;;;;;;10.40;96.30;;;;;;4317733;33;44198;-82
2022/04/30 06:21:49;;;;;;;;;;;10.40;96.20;;;;;;4330596;33;44162;-82
2022/04/30 06:24:22;;;;;;;;;;;10.50;96.20;;;;;;4330749;33;43930;-82
2022/04/30 06:26:55;;;;;;;;;;;10.50;96.40;;;;;;4330514;33;45883;-81
2022/04/30 06:29:30;;;;;;;;;;;10.50;96.30;;;;;;4331419;33;19998;-81
2022/04/30 06:32:03;;;;;;;;;;;10.50;96.40;;;;;;4317176;33;43889;-81
2022/04/30 06:34:39;;;;;;;;;;;10.50;96.40;;;;;;4317840;33;43128;-81
2022/04/30 06:37:07;;;;;;;;;;;10.50;96.30;;;;;;4328922;33;44066;-83
2022/04/30 06:39:43;;;;;;;;;;;10.50;96.60;;;;;;4317202;33;43432;-82
2022/04/30 06:42:13;;;;;;;;;;;10.50;96.20;;;;;;4330314;33;44258;-82
2022/04/30 06:44:45;;;;;;;;;;;10.50;96.40;;;;;;4330180;33;44164;-82
2022/04/30 06:47:14;;;;;;;;;;;10.50;96.40;;;;;;4329880;33;42680;-82
2022/04/30 06:49:41;;;;;;;;;;;10.50;96.60;;;;;;4329012;33;43499;-81
2022/04/30 06:52:11;;;;;;;;;;;10.50;96.60;;;;;;4330320;33;41635;-82
2022/04/30 06:57:33;;;;;;;;;;;10.60;96.40;;;;;;4330313;33;44688;-82
2022/04/30 07:01:25;;;;;;;;;;;10.60;96.50;;;;;;4330367;33;44008;-82
2022/04/30 07:02:51;;;;;;;;;;;10.60;96.10;;;;;;4332647;33;44089;-82
2022/04/30 07:05:18;;;;;;;;;;;10.60;96.40;;;;;;4332531;33;44404;-83
2022/04/30 07:07:56;;;;;;;;;;;10.60;96.40;;;;;;4319545;33;44689;-83
2022/04/30 07:10:31;;;;;;;;;;;10.60;96.10;;;;;;4331790;33;44267;-83
2022/04/30 07:13:01;;;;;;;;;;;10.70;96.00;;;;;;4319718;33;43858;-83
2022/04/30 07:15:39;;;;;;;;;;;10.70;96.20;;;;;;4331572;33;45103;-83
2022/04/30 07:18:06;;;;;;;;;;;10.60;95.90;;;;;;4319618;33;44152;-83
2022/04/30 07:20:42;;;;;;;;;;;10.70;95.80;;;;;;4332180;33;44227;-83
2022/04/30 07:23:14;;;;;;;;;;;10.70;95.70;;;;;;4332653;33;44482;-83
2022/04/30 07:25:48;;;;;;;;;;;10.70;95.60;;;;;;4331526;33;42850;-83
2022/04/30 07:28:15;;;;;;;;;;;10.70;95.80;;;;;;4332510;33;43486;-84
2022/04/30 07:30:48;;;;;;;;;;;10.70;95.70;;;;;;4332180;33;45066;-83
2022/04/30 07:33:23;;;;;;;;;;;10.70;95.60;;;;;;4318821;33;43343;-83
2022/04/30 07:35:55;;;;;;;;;;;10.70;95.70;;;;;;4332386;33;44934;-83
2022/04/30 07:38:25;;;;;;;;;;;10.70;95.80;;;;;;4318776;33;42553;-83
2022/04/30 07:41:04;;;;;;;;;;;10.70;95.70;;;;;;4332515;33;45351;-82
2022/04/30 07:43:45;;;;;;;;;;;10.70;95.70;;;;;;4319261;33;42581;-83
2022/04/30 07:46:15;;;;;;;;;;;10.70;95.80;;;;;;4331167;33;45003;-81
2022/04/30 07:48:43;;;;;;;;;;;10.70;95.80;;;;;;4318963;33;44895;-81
2022/04/30 07:51:14;;;;;;;;;;;10.70;95.90;;;;;;4318558;33;42926;-82
2022/04/30 07:53:44;;;;;;;;;;;10.70;95.80;;;;;;4330939;33;42755;-82
2022/04/30 07:56:17;;;;;;;;;;;10.70;95.70;;;;;;4319018;33;44507;-80
2022/04/30 07:58:47;;;;;;;;;;;10.80;95.70;;;;;;4319101;33;43347;-80
2022/04/30 08:01:22;;;;;;;;;;;10.70;95.50;;;;;;4319790;33;20358;-80
2022/04/30 08:03:52;;;;;;;;;;;10.70;95.40;;;;;;4303032;33;46076;-81
2022/04/30 08:06:25;;;;;;;;;;;10.80;95.30;;;;;;4301571;33;43434;-81
2022/04/30 08:08:58;;;;;;;;;;;10.80;95.20;;;;;;4303064;33;44232;-81
2022/04/30 08:11:31;;;;;;;;;;;10.80;95.20;;;;;;4312910;33;43783;-82
2022/04/30 08:14:01;;;;;;;;;;;10.80;95.30;;;;;;4301422;33;43478;-82
2022/04/30 08:16:28;;;;;;;;;;;10.80;95.30;;;;;;4313478;33;44227;-82
2022/04/30 08:18:58;;;;;;;;;;;10.80;95.40;;;;;;4302435;33;44180;-83
2022/04/30 08:21:30;;;;;;;;;;;10.80;95.40;;;;;;4313141;33;45687;-83
2022/04/30 08:24:06;;;;;;;;;;;10.80;95.30;;;;;;4313594;33;43992;-82
2022/04/30 08:26:33;;;;;;;;;;;10.80;95.30;;;;;;4301551;33;45299;-84
2022/04/30 08:29:02;;;;;;;;;;;10.80;95.10;;;;;;4302460;33;43237;-84
2022/04/30 08:31:38;;;;;;;;;;;10.80;95.00;;;;;;4302342;33;20003;-83
2022/04/30 08:34:10;;;;;;;;;;;10.80;95.00;;;;;;4302380;33;44102;-84
2022/04/30 08:36:38;;;;;;;;;;;10.80;94.90;;;;;;4301489;33;42875;-84
2022/04/30 08:39:14;;;;;;;;;;;10.90;94.90;;;;;;4313038;33;44335;-83
2022/04/30 08:41:45;;;;;;;;;;;10.80;94.90;;;;;;4301665;33;44241;-84
2022/04/30 08:44:16;;;;;;;;;;;10.90;94.90;;;;;;4313094;33;44140;-84
2022/04/30 08:46:48;;;;;;;;;;;10.90;94.90;;;;;;4301236;33;44853;-83
2022/04/30 08:49:22;;;;;;;;;;;10.90;94.90;;;;;;4302231;33;43209;-84
2022/04/30 08:51:55;;;;;;;;;;;10.90;94.90;;;;;;4300826;33;42579;-84
2022/04/30 08:54:27;;;;;;;;;;;10.90;94.80;;;;;;4313128;33;44201;-83
2022/04/30 08:57:00;;;;;;;;;;;10.90;94.80;;;;;;4301372;33;43249;-84
2022/04/30 08:59:30;;;;;;;;;;;10.90;94.80;;;;;;4302280;33;44022;-84
2022/04/30 09:01:58;;;;;;;;;;;10.90;94.90;;;;;;4309496;33;20052;-83
2022/04/30 09:04:48;;;;;;;;;;;10.90;94.80;;;;;;4329700;33;43305;-84
2022/04/30 09:07:23;;;;;;;;;;;10.90;94.70;;;;;;4330205;33;43547;-84
2022/04/30 09:09:56;;;;;;;;;;;10.90;94.60;;;;;;4331527;33;43439;-84
2022/04/30 09:12:29;;;;;;;;;;;10.90;94.60;;;;;;4330157;33;44218;-84
2022/04/30 09:15:12;;;;;;;;;;;10.90;94.60;;;;;;4331019;33;44754;-83
2022/04/30 09:17:44;;;;;;;;;;;11.00;94.60;;;;;;4330008;33;45434;-84
2022/04/30 09:20:18;;;;;;;;;;;10.90;94.60;;;;;;4317667;33;42571;-84
2022/04/30 09:22:48;;;;;;;;;;;11.00;94.50;;;;;;4329692;33;41948;-84
2022/04/30 09:25:23;;;;;;;;;;;10.90;94.70;;;;;;4317398;33;44318;-83
2022/04/30 09:28:03;;;;;;;;;;;11.00;94.90;;;;;;4330910;33;44193;-84
2022/04/30 09:30:36;;;;;;;;;;;11.00;94.90;;;;;;4317508;33;44089;-83
2022/04/30 09:33:05;;;;;;;;;;;11.00;94.90;;;;;;4318432;33;20032;-83
2022/04/30 09:38:22;;;;;;;;;;;11.00;95.10;;;;;;4330897;33;44802;-83
2022/04/30 09:41:00;;;;;;;;;;;11.00;95.10;;;;;;4329617;33;44328;-83
2022/04/30 09:43:31;;;;;;;;;;;11.00;94.90;;;;;;4330675;33;45111;-83
2022/04/30 09:46:10;;;;;;;;;;;11.00;95.00;;;;;;4329690;33;43101;-83
2022/04/30 09:54:27;;;;;;;;;;;11.00;94.50;;;;;;4330135;33;43809;-82
2022/04/30 09:57:12;;;;;;;;;;;11.00;94.60;;;;;;4317435;33;45785;-82
2022/04/30 09:59:42;;;;;;;;;;;11.00;94.70;;;;;;4329583;33;44227;-82
2022/04/30 10:02:10;;;;;;;;;;;11.10;94.60;;;;;;4330098;33;45582;-81
2022/04/30 10:04:37;;;;;;;;;;;11.00;94.50;;;;;;4329056;33;43610;-82
2022/04/30 10:07:09;;;;;;;;;;;11.00;94.60;;;;;;4330869;33;43790;-82
2022/04/30 10:09:44;;;;;;;;;;;11.10;94.30;;;;;;4330068;33;42566;-81
2022/04/30 10:12:18;;;;;;;;;;;11.10;94.30;;;;;;4330433;33;44162;-81
2022/04/30 10:14:51;;;;;;;;;;;11.10;94.60;;;;;;4317289;33;45674;-81
2022/04/30 10:17:20;;;;;;;;;;;11.10;94.50;;;;;;4316824;33;44263;-81
2022/04/30 10:19:57;;;;;;;;;;;11.10;94.40;;;;;;4330215;33;44228;-81
2022/04/30 10:22:25;;;;;;;;;;;11.10;94.60;;;;;;4317521;33;43745;-80
2022/04/30 10:24:59;;;;;;;;;;;11.10;94.70;;;;;;4330553;33;43951;-81
2022/04/30 10:27:40;;;;;;;;;;;11.20;94.70;;;;;;4329397;33;44101;-80
2022/04/30 10:30:17;;;;;;;;;;;11.20;94.60;;;;;;4329991;33;43485;-80
2022/04/30 10:32:56;;;;;;;;;;;11.20;94.50;;;;;;4330589;33;44113;-80
2022/04/30 10:35:31;;;;;;;;;;;11.20;94.30;;;;;;4332325;33;20016;-80
2022/04/30 10:38:10;;;;;;;;;;;11.20;94.30;;;;;;4320149;33;43057;-80
2022/04/30 10:40:50;;;;;;;;;;;11.20;94.10;;;;;;4319665;33;44334;-80
2022/04/30 10:43:34;;;;;;;;;;;11.20;93.80;;;;;;4332021;33;43844;-81
2022/04/30 10:46:16;;;;;;;;;;;11.20;93.90;;;;;;4320046;33;45819;-80
2022/04/30 10:48:49;;;;;;;;;;;11.30;94.10;;;;;;4333154;33;41995;-80
2022/04/30 10:51:50;;;;;;;;;;;11.30;93.90;;;;;;4333067;33;43468;-80
2022/04/30 10:54:23;;;;;;;;;;;11.30;94.20;;;;;;4331729;33;43077;-81
2022/04/30 10:56:58;;;;;;;;;;;11.30;94.10;;;;;;4319363;33;43912;-81
2022/04/30 10:59:26;;;;;;;;;;;11.30;93.90;;;;;;4333057;33;43924;-80
2022/04/30 11:02:02;;;;;;;;;;;11.30;94.00;;;;;;4319356;33;43517;-81
2022/04/30 11:04:30;;;;;;;;;;;11.40;94.00;;;;;;4332010;33;44403;-81
2022/04/30 11:07:02;;;;;;;;;;;11.30;94.00;;;;;;4319291;33;44172;-81
2022/04/30 11:09:40;;;;;;;;;;;11.40;94.40;;;;;;4332620;33;44235;-82
2022/04/30 11:12:12;;;;;;;;;;;11.40;94.10;;;;;;4331312;33;44421;-82
2022/04/30 11:14:48;;;;;;;;;;;11.40;93.90;;;;;;4332764;33;44230;-81
2022/04/30 11:17:20;;;;;;;;;;;11.40;93.40;;;;;;4332793;33;44288;-82
2022/04/30 11:19:56;;;;;;;;;;;11.40;93.50;;;;;;4331146;33;44295;-82
2022/04/30 11:22:29;;;;;;;;;;;11.50;93.70;;;;;;4332664;33;44195;-82
2022/04/30 11:24:57;;;;;;;;;;;11.50;93.70;;;;;;4319191;33;44030;-82
2022/04/30 11:27:33;;;;;;;;;;;11.50;93.70;;;;;;4331493;33;43291;-83
2022/04/30 11:30:09;;;;;;;;;;;11.50;93.80;;;;;;4332089;33;44144;-83
2022/04/30 11:32:36;;;;;;;;;;;11.50;93.70;;;;;;4319484;33;44090;-82
2022/04/30 11:35:09;;;;;;;;;;;11.50;93.70;;;;;;4319442;33;43545;-83
2022/04/30 11:37:42;;;;;;;;;;;11.50;93.60;;;;;;4331447;33;44354;-83
2022/04/30 11:40:18;;;;;;;;;;;11.60;93.60;;;;;;4318956;33;43952;-83
2022/04/30 11:43:05;;;;;;;;;;;11.60;93.50;;;;;;4331337;33;46046;-83
2022/04/30 11:45:38;;;;;;;;;;;11.60;93.50;;;;;;4331094;33;43941;-83
2022/04/30 11:48:11;;;;;;;;;;;11.60;93.70;;;;;;4330823;33;43921;-83
2022/04/30 11:50:45;;;;;;;;;;;11.60;93.40;;;;;;4331843;33;44003;-83
2022/04/30 11:53:12;;;;;;;;;;;11.60;93.50;;;;;;4319281;33;45249;-83
2022/04/30 11:55:45;;;;;;;;;;;11.60;93.30;;;;;;4319096;33;43333;-84
2022/04/30 11:58:12;;;;;;;;;;;11.70;93.50;;;;;;4331570;33;43472;-83
2022/04/30 12:01:03;;;;;;;;;;;11.60;93.40;;;;;;4321249;33;46373;-83
2022/04/30 12:03:34;;;;;;;;;;;11.70;93.40;;;;;;4330654;33;44058;-84
2022/04/30 12:06:01;;;;;;;;;;;11.70;93.60;;;;;;4332248;33;43455;-83
2022/04/30 12:08:34;;;;;;;;;;;11.70;93.50;;;;;;4319106;33;23909;-83
2022/04/30 12:11:06;;;;;;;;;;;11.70;93.50;;;;;;4330705;33;44030;-83
2022/04/30 12:13:40;;;;;;;;;;;11.70;93.50;;;;;;4331476;33;46003;-83
2022/04/30 12:16:10;;;;;;;;;;;11.80;93.50;;;;;;4331500;33;42104;-83
2022/04/30 12:24:43;;;;;;;;;;;11.80;93.20;;;;;;4331783;33;43605;-83
2022/04/30 12:27:20;;;;;;;;;;;11.80;93.30;;;;;;4331718;33;43251;-83
2022/04/30 12:29:47;;;;;;;;;;;11.90;93.40;;;;;;4318263;33;44112;-83
2022/04/30 12:32:18;;;;;;;;;;;11.90;93.30;;;;;;4330213;33;44275;-83
2022/04/30 12:34:57;;;;;;;;;;;11.90;93.10;;;;;;4331628;33;44729;-83
2022/04/30 12:37:34;;;;;;;;;;;11.90;93.10;;;;;;4330080;33;44242;-83
2022/04/30 12:40:13;;;;;;;;;;;11.90;93.10;;;;;;4332209;33;20544;-83
2022/04/30 12:42:46;;;;;;;;;;;12.00;93.30;;;;;;4330604;33;44362;-82
2022/04/30 12:45:18;;;;;;;;;;;12.00;93.40;;;;;;4331541;33;44242;-83
2022/04/30 12:47:51;;;;;;;;;;;12.00;93.30;;;;;;4330383;33;43258;-84
2022/04/30 12:50:21;;;;;;;;;;;12.00;93.00;;;;;;4318507;33;43838;-83
2022/04/30 12:52:54;;;;;;;;;;;12.00;93.10;;;;;;4318292;33;44248;-82
2022/04/30 12:55:30;;;;;;;;;;;12.00;93.30;;;;;;4317722;33;43217;-83
2022/04/30 12:58:00;;;;;;;;;;;12.10;93.50;;;;;;4331345;33;46124;-83
2022/04/30 13:00:33;;;;;;;;;;;12.10;93.50;;;;;;4318147;33;45653;-84
2022/04/30 13:03:07;;;;;;;;;;;12.10;93.60;;;;;;4329820;33;43199;-84
2022/04/30 13:05:40;;;;;;;;;;;12.20;93.50;;;;;;4331202;33;44990;-84
2022/04/30 13:08:12;;;;;;;;;;;12.20;93.60;;;;;;4331247;33;45173;-87
2022/04/30 13:13:39;;;;;;;;;;;12.30;93.20;;;;;;4330924;33;43418;-87
2022/04/30 13:16:11;;;;;;;;;;;12.30;93.40;;;;;;4331170;33;43910;-86
2022/04/30 13:18:45;;;;;;;;;;;12.30;93.30;;;;;;4330017;33;46235;-85
2022/04/30 13:21:13;;;;;;;;;;;12.30;93.70;;;;;;4331022;33;43898;-85
2022/04/30 13:23:45;;;;;;;;;;;12.30;93.30;;;;;;4330136;33;45733;-84
2022/04/30 13:26:19;;;;;;;;;;;12.40;93.20;;;;;;4318548;33;45152;-85
2022/04/30 13:28:47;;;;;;;;;;;12.40;93.30;;;;;;4329923;33;45823;-84
2022/04/30 13:31:14;;;;;;;;;;;12.40;93.30;;;;;;4317259;33;44598;-83
2022/04/30 13:33:46;;;;;;;;;;;12.40;93.40;;;;;;4329330;33;43920;-82
2022/04/30 13:36:16;;;;;;;;;;;12.40;93.50;;;;;;4330792;33;46111;-82
2022/04/30 13:38:45;;;;;;;;;;;12.40;93.50;;;;;;4317733;33;45028;-82
2022/04/30 13:41:12;;;;;;;;;;;12.40;93.40;;;;;;4330285;33;20480;-82
2022/04/30 13:43:39;;;;;;;;;;;12.40;93.20;;;;;;4317612;33;45308;-83
2022/04/30 13:46:12;;;;;;;;;;;12.50;93.60;;;;;;4329682;33;42379;-83
2022/04/30 13:48:40;;;;;;;;;;;12.50;93.40;;;;;;4317569;33;45832;-83
2022/04/30 13:51:12;;;;;;;;;;;12.50;93.50;;;;;;4330460;33;43035;-83
2022/04/30 13:53:45;;;;;;;;;;;12.50;93.40;;;;;;4317520;33;44223;-83
2022/04/30 13:56:19;;;;;;;;;;;12.50;93.50;;;;;;4317233;33;43957;-83
2022/04/30 13:58:46;;;;;;;;;;;12.50;93.60;;;;;;4330663;33;44043;-83
2022/04/30 14:01:19;;;;;;;;;;;12.50;93.70;;;;;;4330060;33;44219;-83
2022/04/30 14:03:52;;;;;;;;;;;12.50;93.50;;;;;;4330230;33;44175;-83
2022/04/30 14:06:19;;;;;;;;;;;12.50;93.90;;;;;;4317439;33;44148;-83
2022/04/30 14:08:52;;;;;;;;;;;12.60;93.50;;;;;;4329179;33;43210;-83
2022/04/30 14:11:19;;;;;;;;;;;12.60;93.60;;;;;;4318091;33;19998;-83
2022/04/30 14:16:32;;;;;;;;;;;12.60;93.60;;;;;;4330687;33;46296;-83
2022/04/30 14:19:00;;;;;;;;;;;12.70;93.70;;;;;;4328827;33;44083;-83
2022/04/30 14:21:32;;;;;;;;;;;12.60;93.60;;;;;;4330029;33;43061;-83
2022/04/30 14:24:08;;;;;;;;;;;12.60;93.30;;;;;;4330602;33;43093;-84
2022/04/30 14:26:58;;;;;;;;;;;12.70;93.50;;;;;;4319226;33;43374;-83
2022/04/30 14:29:28;;;;;;;;;;;12.70;93.30;;;;;;4330553;33;45715;-83
2022/04/30 14:32:01;;;;;;;;;;;12.70;93.40;;;;;;4317289;33;43984;-82
2022/04/30 14:34:34;;;;;;;;;;;12.70;92.90;;;;;;4329313;33;43716;-83
2022/04/30 14:37:06;;;;;;;;;;;12.70;93.20;;;;;;4317226;33;44684;-83
2022/04/30 14:39:40;;;;;;;;;;;12.70;93.30;;;;;;4330528;33;43839;-83
2022/04/30 14:42:13;;;;;;;;;;;12.70;93.10;;;;;;4329951;33;20509;-82
2022/04/30 14:44:46;;;;;;;;;;;12.80;93.10;;;;;;4329159;33;45159;-83
2022/04/30 14:47:13;;;;;;;;;;;12.80;93.30;;;;;;4316792;33;43554;-83
2022/04/30 14:50:04;;;;;;;;;;;12.80;93.20;;;;;;4329530;33;42867;-82
2022/04/30 14:52:35;;;;;;;;;;;12.80;93.20;;;;;;4329019;33;43021;-82
2022/04/30 14:55:04;;;;;;;;;;;12.80;93.10;;;;;;4317367;33;43483;-82
2022/04/30 14:57:37;;;;;;;;;;;12.90;93.10;;;;;;4328582;33;43101;-83
2022/04/30 15:00:09;;;;;;;;;;;12.90;93.00;;;;;;4330188;33;43405;-82
2022/04/30 15:02:37;;;;;;;;;;;12.90;93.40;;;;;;4329825;33;45723;-83
2022/04/30 15:05:04;;;;;;;;;;;12.90;93.10;;;;;;4316993;33;44216;-83
2022/04/30 15:07:34;;;;;;;;;;;12.90;93.00;;;;;;4317109;33;44178;-83
2022/04/30 15:10:07;;;;;;;;;;;12.90;92.80;;;;;;4328821;33;43107;-82
2022/04/30 15:12:34;;;;;;;;;;;12.90;92.60;;;;;;4330698;33;19994;-84
2022/04/30 15:15:08;;;;;;;;;;;13.00;92.70;;;;;;4329747;33;42526;-83
2022/04/30 15:17:40;;;;;;;;;;;13.00;91.90;;;;;;4329596;33;44976;-84
2022/04/30 15:20:08;;;;;;;;;;;13.00;92.30;;;;;;4328955;33;43761;-84
2022/04/30 15:22:35;;;;;;;;;;;13.00;92.70;;;;;;4317856;33;42962;-83
2022/04/30 15:25:09;;;;;;;;;;;13.00;92.50;;;;;;4331136;33;43208;-84
2022/04/30 15:27:41;;;;;;;;;;;13.00;92.90;;;;;;4332242;33;44706;-84